createdAt,value
2018-08-03T00:02:06.993Z,19.67
2018-08-03T00:04:35.173Z,19.68
2018-08-03T00:07:03.346Z,19.58
2018-08-03T00:09:32.294Z,19.55
2018-08-03T00:12:00.452Z,19.50
2018-08-03T00:14:28.925Z,19.46
2018-08-03T00:16:57.165Z,19.42
2018-08-03T00:19:25.312Z,19.36
2018-08-03T00:21:53.480Z,19.37
2018-08-03T00:24:21.666Z,19.39
2018-08-03T00:26:50.198Z,19.27
2018-08-03T00:29:18.332Z,19.22
2018-08-03T00:31:46.496Z,19.09
2018-08-03T00:34:14.618Z,19.10
2018-08-03T00:36:42.793Z,19.05
2018-08-03T00:39:11.575Z,19.04
2018-08-03T00:41:39.725Z,19.07
2018-08-03T00:44:07.881Z,19.09
2018-08-03T00:46:36.091Z,19.06
2018-08-03T00:49:04.251Z,19.07
2018-08-03T00:51:32.353Z,19.07
2018-08-03T00:54:00.548Z,19.00
2018-08-03T00:56:28.700Z,18.97
2018-08-03T00:58:56.877Z,18.89
2018-08-03T01:01:25.025Z,18.87
2018-08-03T01:03:53.161Z,18.84
2018-08-03T01:06:21.317Z,18.78
2018-08-03T01:08:49.468Z,18.77
2018-08-03T01:11:17.622Z,18.70
2018-08-03T01:13:45.741Z,18.59
2018-08-03T01:16:13.888Z,18.54
2018-08-03T01:18:42.070Z,18.55
2018-08-03T01:21:10.267Z,18.43
2018-08-03T01:23:38.468Z,18.24
2018-08-03T01:26:06.622Z,18.18
2018-08-03T01:28:35.361Z,18.08
2018-08-03T01:31:03.572Z,18.05
2018-08-03T01:33:31.749Z,18.04
2018-08-03T01:36:00.024Z,18.10
2018-08-03T01:38:29.186Z,18.18
2018-08-03T01:40:57.360Z,18.28
2018-08-03T01:43:25.540Z,18.34
2018-08-03T01:45:53.716Z,18.07
2018-08-03T01:48:21.838Z,18.14
2018-08-03T01:50:50.003Z,18.16
2018-08-03T01:53:18.146Z,18.14
2018-08-03T01:55:46.510Z,18.08
2018-08-03T01:58:14.673Z,17.97
2018-08-03T02:00:43.026Z,17.94
2018-08-03T02:03:12.337Z,17.88
2018-08-03T02:05:40.430Z,17.89
2018-08-03T02:08:08.546Z,17.85
2018-08-03T02:10:36.690Z,17.79
2018-08-03T02:13:04.878Z,17.99
2018-08-03T02:15:33.172Z,17.77
2018-08-03T02:18:01.288Z,17.58
2018-08-03T02:20:29.620Z,17.49
2018-08-03T02:22:57.766Z,17.52
2018-08-03T02:25:25.917Z,17.52
2018-08-03T02:27:54.040Z,17.60
2018-08-03T02:30:22.916Z,17.68
2018-08-03T02:32:51.091Z,17.74
2018-08-03T02:35:19.249Z,17.80
2018-08-03T02:37:47.425Z,17.88
2018-08-03T02:40:15.548Z,17.93
2018-08-03T02:42:43.657Z,17.92
2018-08-03T02:45:11.836Z,17.92
2018-08-03T02:47:39.968Z,17.92
2018-08-03T02:50:08.104Z,17.85
2018-08-03T02:52:36.280Z,17.84
2018-08-03T02:55:04.558Z,17.85
2018-08-03T02:57:32.667Z,17.68
2018-08-03T03:00:00.762Z,17.52
2018-08-03T03:02:28.918Z,17.34
2018-08-03T03:04:57.017Z,17.31
2018-08-03T03:07:25.199Z,17.29
2018-08-03T03:09:53.321Z,17.35
2018-08-03T03:12:21.458Z,17.33
2018-08-03T03:14:49.604Z,17.47
2018-08-03T03:17:17.888Z,17.48
2018-08-03T03:19:46.008Z,17.51
2018-08-03T03:22:14.185Z,17.67
2018-08-03T03:24:42.394Z,17.36
2018-08-03T03:27:10.549Z,17.30
2018-08-03T03:29:38.714Z,17.42
2018-08-03T03:32:06.885Z,17.31
2018-08-03T03:34:35.059Z,17.40
2018-08-03T03:37:03.190Z,17.38
2018-08-03T03:39:31.314Z,17.38
2018-08-03T03:41:59.481Z,17.50
2018-08-03T03:44:27.645Z,17.51
2018-08-03T03:46:55.844Z,17.57
2018-08-03T03:49:24.104Z,17.60
2018-08-03T03:51:52.301Z,17.52
2018-08-03T03:54:20.479Z,17.54
2018-08-03T03:56:48.645Z,17.64
2018-08-03T03:59:16.831Z,17.71
2018-08-03T04:01:45.016Z,17.72
2018-08-03T04:04:13.170Z,17.77
2018-08-03T04:06:41.342Z,17.83
2018-08-03T04:09:11.658Z,17.92
2018-08-03T04:11:39.914Z,17.76
2018-08-03T04:14:08.340Z,17.68
2018-08-03T04:16:37.287Z,17.53
2018-08-03T04:19:05.602Z,17.56
2018-08-03T04:21:33.759Z,17.65
2018-08-03T04:24:01.946Z,17.73
2018-08-03T04:26:30.212Z,17.71
2018-08-03T04:28:58.815Z,17.64
2018-08-03T04:31:27.135Z,17.64
2018-08-03T04:33:55.237Z,17.80
2018-08-03T04:36:23.440Z,17.88
2018-08-03T04:38:51.636Z,17.87
2018-08-03T04:41:19.753Z,18.04
2018-08-03T04:43:47.901Z,18.10
2018-08-03T04:46:16.109Z,18.32
2018-08-03T04:48:44.303Z,18.54
2018-08-03T04:51:12.774Z,19.10
2018-08-03T04:53:40.929Z,19.53
2018-08-03T04:56:09.151Z,20.17
2018-08-03T04:58:37.357Z,20.48
2018-08-03T05:01:05.540Z,20.66
2018-08-03T05:03:33.765Z,21.20
2018-08-03T05:06:01.913Z,22.11
2018-08-03T05:08:30.107Z,22.74
2018-08-03T05:10:58.287Z,22.99
2018-08-03T05:13:26.443Z,23.68
2018-08-03T05:15:54.615Z,24.31
2018-08-03T05:18:22.789Z,24.14
2018-08-03T05:20:50.933Z,24.63
2018-08-03T05:23:19.055Z,24.63
2018-08-03T05:25:47.227Z,25.73
2018-08-03T05:28:15.394Z,25.79
2018-08-03T05:30:43.545Z,25.87
2018-08-03T05:33:11.669Z,25.94
2018-08-03T05:35:39.798Z,26.44
2018-08-03T05:38:08.306Z,27.16
2018-08-03T05:40:36.487Z,27.58
2018-08-03T05:43:04.673Z,28.18
2018-08-03T05:45:32.889Z,27.59
2018-08-03T05:48:00.996Z,27.36
2018-08-03T05:50:29.186Z,27.46
2018-08-03T05:52:57.331Z,27.60
2018-08-03T05:55:25.472Z,28.45
2018-08-03T05:57:53.628Z,28.18
2018-08-03T06:00:21.782Z,28.64
2018-08-03T06:02:50.098Z,28.99
2018-08-03T06:05:18.355Z,29.98
2018-08-03T06:07:46.529Z,29.50
2018-08-03T06:10:14.670Z,29.33
2018-08-03T06:12:43.362Z,30.26
2018-08-03T06:15:11.949Z,30.77
2018-08-03T06:17:40.482Z,29.92
2018-08-03T06:20:10.565Z,29.61
2018-08-03T06:22:38.699Z,30.19
2018-08-03T06:25:07.627Z,31.33
2018-08-03T06:27:35.762Z,30.74
2018-08-03T06:30:04.307Z,29.32
2018-08-03T06:32:32.452Z,29.93
2018-08-03T06:35:00.632Z,29.70
2018-08-03T06:37:28.756Z,29.93
2018-08-03T06:39:56.904Z,31.10
2018-08-03T06:42:25.062Z,29.85
2018-08-03T06:44:53.165Z,30.32
2018-08-03T06:47:21.311Z,30.56
2018-08-03T06:49:49.408Z,30.09
2018-08-03T06:52:17.533Z,30.84
2018-08-03T06:54:45.645Z,30.88
2018-08-03T06:57:13.815Z,32.00
2018-08-03T06:59:41.962Z,32.40
2018-08-03T07:02:10.066Z,32.60
2018-08-03T07:04:38.261Z,31.58
2018-08-03T07:07:06.507Z,32.41
2018-08-03T07:09:34.724Z,33.39
2018-08-03T07:12:02.925Z,34.14
2018-08-03T07:14:31.052Z,32.98
2018-08-03T07:16:59.178Z,32.70
2018-08-03T07:19:27.315Z,31.38
2018-08-03T07:21:55.444Z,31.69
2018-08-03T07:24:23.572Z,32.65
2018-08-03T07:26:51.725Z,31.65
2018-08-03T07:29:19.864Z,30.96
2018-08-03T07:31:48.008Z,31.11
2018-08-03T07:34:16.138Z,31.38
2018-08-03T07:36:44.256Z,31.11
2018-08-03T07:39:12.427Z,30.95
2018-08-03T07:41:40.559Z,31.68
2018-08-03T07:44:08.687Z,32.57
2018-08-03T07:46:36.811Z,32.41
2018-08-03T07:49:04.981Z,33.08
2018-08-03T07:51:33.076Z,32.13
2018-08-03T07:54:01.239Z,32.31
2018-08-03T07:56:29.369Z,31.05
2018-08-03T07:58:57.517Z,31.81
2018-08-03T08:01:25.668Z,31.77
2018-08-03T08:03:54.455Z,31.08
2018-08-03T08:06:22.696Z,30.93
2018-08-03T08:08:51.135Z,30.58
2018-08-03T08:11:19.294Z,29.79
2018-08-03T08:13:47.461Z,29.58
2018-08-03T08:16:15.581Z,29.60
2018-08-03T08:18:43.701Z,29.31
2018-08-03T08:21:11.846Z,29.02
2018-08-03T08:23:39.997Z,29.44
2018-08-03T08:26:08.309Z,29.42
2018-08-03T08:28:36.422Z,29.23
2018-08-03T08:31:04.597Z,29.64
2018-08-03T08:33:32.734Z,30.79
2018-08-03T08:36:00.846Z,31.49
2018-08-03T08:38:29.029Z,32.36
2018-08-03T08:40:57.153Z,33.06
2018-08-03T08:43:25.307Z,32.88
2018-08-03T08:45:53.401Z,32.49
2018-08-03T08:48:21.556Z,32.88
2018-08-03T08:50:49.741Z,32.38
2018-08-03T08:53:17.924Z,33.16
2018-08-03T08:55:46.038Z,33.69
2018-08-03T08:58:14.178Z,33.18
2018-08-03T09:00:42.310Z,33.08
2018-08-03T09:03:10.457Z,32.79
2018-08-03T09:05:38.647Z,33.43
2018-08-03T09:08:06.805Z,32.43
2018-08-03T09:10:34.927Z,31.64
2018-08-03T09:13:03.124Z,31.03
2018-08-03T09:15:31.178Z,31.59
2018-08-03T09:17:59.339Z,32.45
2018-08-03T09:20:27.468Z,32.07
2018-08-03T09:22:55.604Z,32.43
2018-08-03T09:25:23.785Z,31.59
2018-08-03T09:27:51.913Z,31.37
2018-08-03T09:30:20.041Z,31.08
2018-08-03T09:32:48.157Z,30.55
2018-08-03T09:35:16.333Z,30.57
2018-08-03T09:37:44.518Z,31.20
2018-08-03T09:40:12.694Z,31.88
2018-08-03T09:42:40.817Z,31.83
2018-08-03T09:45:09.006Z,31.86
2018-08-03T09:47:37.114Z,31.90
2018-08-03T09:50:05.364Z,31.84
2018-08-03T09:52:33.539Z,31.88
2018-08-03T09:55:01.684Z,32.18
2018-08-03T09:57:29.780Z,32.23
2018-08-03T09:59:57.904Z,32.47
2018-08-03T10:02:26.047Z,32.51
2018-08-03T10:04:54.199Z,32.32
2018-08-03T10:07:22.412Z,32.29
2018-08-03T10:09:50.542Z,32.69
2018-08-03T10:12:18.689Z,32.74
2018-08-03T10:14:46.828Z,32.46
2018-08-03T10:17:14.967Z,31.90
2018-08-03T10:19:43.124Z,32.17
2018-08-03T10:22:11.279Z,32.20
2018-08-03T10:24:39.413Z,32.03
2018-08-03T10:27:07.546Z,32.31
2018-08-03T10:29:35.735Z,31.32
2018-08-03T10:32:03.906Z,31.83
2018-08-03T10:34:32.078Z,32.12
2018-08-03T10:37:00.237Z,32.17
2018-08-03T10:39:28.350Z,32.14
2018-08-03T10:41:56.460Z,32.38
2018-08-03T10:44:24.578Z,32.30
2018-08-03T10:46:52.705Z,32.06
2018-08-03T10:49:20.856Z,32.11
2018-08-03T10:51:49.016Z,32.31
2018-08-03T10:54:17.176Z,32.08
2018-08-03T10:56:45.339Z,32.53
2018-08-03T10:59:13.451Z,32.42
2018-08-03T11:01:41.679Z,32.14
2018-08-03T11:04:09.808Z,31.91
2018-08-03T11:06:38.046Z,31.98
2018-08-03T11:09:07.807Z,32.04
2018-08-03T11:11:36.088Z,31.94
2018-08-03T11:14:04.277Z,32.02
2018-08-03T11:16:32.379Z,32.53
2018-08-03T11:19:00.524Z,32.58
2018-08-03T11:21:28.726Z,32.70
2018-08-03T11:23:56.890Z,32.59
2018-08-03T11:26:25.062Z,32.56
2018-08-03T11:28:53.202Z,32.29
2018-08-03T11:31:21.381Z,32.60
2018-08-03T11:33:49.533Z,32.35
2018-08-03T11:36:17.680Z,32.89
2018-08-03T11:38:45.791Z,33.35
2018-08-03T11:41:13.926Z,33.52
2018-08-03T11:43:42.144Z,33.56
2018-08-03T11:46:10.289Z,33.39
2018-08-03T11:48:38.421Z,33.33
2018-08-03T11:51:06.687Z,33.26
2018-08-03T11:53:34.857Z,33.15
2018-08-03T11:56:02.996Z,32.81
2018-08-03T11:58:31.177Z,32.63
2018-08-03T12:00:59.347Z,32.74
2018-08-03T12:03:27.525Z,32.76
2018-08-03T12:05:55.657Z,33.13
2018-08-03T12:08:23.813Z,33.26
2018-08-03T12:10:51.913Z,32.88
2018-08-03T12:13:20.056Z,32.43
2018-08-03T12:15:48.196Z,32.60
2018-08-03T12:18:16.333Z,33.13
2018-08-03T12:20:46.150Z,33.54
2018-08-03T12:23:14.640Z,33.95
2018-08-03T12:25:42.999Z,34.05
2018-08-03T12:28:11.617Z,34.13
2018-08-03T12:30:39.783Z,34.02
2018-08-03T12:33:08.689Z,33.90
2018-08-03T12:35:36.845Z,33.87
2018-08-03T12:38:05.047Z,33.68
2018-08-03T12:40:33.198Z,33.29
2018-08-03T12:43:01.388Z,33.54
2018-08-03T12:45:33.996Z,33.50
2018-08-03T12:47:57.692Z,33.16
2018-08-03T12:50:25.894Z,32.75
2018-08-03T12:52:54.098Z,32.48
2018-08-03T12:55:22.469Z,32.44
2018-08-03T12:57:50.630Z,32.07
2018-08-03T13:00:18.810Z,32.41
2018-08-03T13:02:46.982Z,32.89
2018-08-03T13:05:15.144Z,32.82
2018-08-03T13:07:43.366Z,32.97
2018-08-03T13:10:11.506Z,32.98
2018-08-03T13:12:39.677Z,33.04
2018-08-03T13:15:08.891Z,33.19
2018-08-03T13:17:37.086Z,33.42
2018-08-03T13:20:05.502Z,33.88
2018-08-03T13:22:33.637Z,33.70
2018-08-03T13:25:01.788Z,33.70
2018-08-03T13:27:30.009Z,33.41
2018-08-03T13:29:58.136Z,33.63
2018-08-03T13:32:26.307Z,33.28
2018-08-03T13:34:54.490Z,33.39
2018-08-03T13:37:22.680Z,33.31
2018-08-03T13:39:50.880Z,33.12
2018-08-03T13:42:19.037Z,32.83
2018-08-03T13:44:47.229Z,32.73
2018-08-03T13:47:15.401Z,32.63
2018-08-03T13:49:43.541Z,32.67
2018-08-03T13:52:11.681Z,32.65
2018-08-03T13:54:39.842Z,32.37
2018-08-03T13:57:07.995Z,32.46
2018-08-03T13:59:36.178Z,32.38
2018-08-03T14:02:18.220Z,32.66
2018-08-03T14:04:46.397Z,32.77
2018-08-03T14:07:14.586Z,32.43
2018-08-03T14:09:42.749Z,32.34
2018-08-03T14:12:10.953Z,32.35
2018-08-03T14:14:40.133Z,32.18
2018-08-03T14:17:08.414Z,32.29
2018-08-03T14:19:36.601Z,32.11
2018-08-03T14:22:05.134Z,31.88
2018-08-03T14:24:33.308Z,32.08
2018-08-03T14:27:01.573Z,32.47
2018-08-03T14:29:29.745Z,32.76
2018-08-03T14:31:57.942Z,32.78
2018-08-03T14:34:26.207Z,32.55
2018-08-03T14:36:54.637Z,32.33
2018-08-03T14:39:22.801Z,32.04
2018-08-03T14:41:50.993Z,31.87
2018-08-03T14:44:19.226Z,31.90
2018-08-03T14:46:47.379Z,32.00
2018-08-03T14:49:15.585Z,31.98
2018-08-03T14:51:43.853Z,31.95
2018-08-03T14:54:11.997Z,32.03
2018-08-03T14:56:40.301Z,32.10
2018-08-03T14:59:08.432Z,32.44
2018-08-03T15:01:36.598Z,32.69
2018-08-03T15:04:04.792Z,32.66
2018-08-03T15:06:32.969Z,32.80
2018-08-03T15:09:01.122Z,32.82
2018-08-03T15:11:29.394Z,32.60
2018-08-03T15:13:57.546Z,32.76
2018-08-03T15:16:25.694Z,32.72
2018-08-03T15:18:53.890Z,32.86
2018-08-03T15:21:22.050Z,32.93
2018-08-03T15:23:50.218Z,32.98
2018-08-03T15:26:18.422Z,32.54
2018-08-03T15:28:46.601Z,32.40
2018-08-03T15:31:14.816Z,32.45
2018-08-03T15:33:42.993Z,32.50
2018-08-03T15:36:11.234Z,32.56
2018-08-03T15:38:39.404Z,32.52
2018-08-03T15:41:07.751Z,32.50
2018-08-03T15:43:35.991Z,32.27
2018-08-03T15:46:04.167Z,31.85
2018-08-03T15:48:32.285Z,31.90
2018-08-03T15:51:00.434Z,31.91
2018-08-03T15:53:28.661Z,31.60
2018-08-03T15:55:56.789Z,31.56
2018-08-03T15:58:24.918Z,31.50
2018-08-03T16:00:53.064Z,31.23
2018-08-03T16:03:21.253Z,31.01
2018-08-03T16:05:49.427Z,31.04
2018-08-03T16:08:17.543Z,31.15
2018-08-03T16:10:45.729Z,31.28
2018-08-03T16:13:13.861Z,31.29
2018-08-03T16:15:42.143Z,31.15
2018-08-03T16:18:10.307Z,31.33
2018-08-03T16:20:38.524Z,31.47
2018-08-03T16:23:07.010Z,31.80
2018-08-03T16:25:35.161Z,31.87
2018-08-03T16:28:03.321Z,31.83
2018-08-03T16:30:31.537Z,31.84
2018-08-03T16:32:59.688Z,31.73
2018-08-03T16:35:27.830Z,31.72
2018-08-03T16:37:55.954Z,31.59
2018-08-03T16:40:24.117Z,31.60
2018-08-03T16:42:52.249Z,31.53
2018-08-03T16:45:20.384Z,31.43
2018-08-03T16:47:48.604Z,31.27
2018-08-03T16:50:16.771Z,31.24
2018-08-03T16:52:44.947Z,30.99
2018-08-03T16:55:13.106Z,30.87
2018-08-03T16:57:41.256Z,30.87
2018-08-03T17:00:09.419Z,30.93
2018-08-03T17:02:37.622Z,30.77
2018-08-03T17:05:05.821Z,30.70
2018-08-03T17:07:33.965Z,30.70
2018-08-03T17:10:02.165Z,30.52
2018-08-03T17:12:30.320Z,30.39
2018-08-03T17:14:58.483Z,30.35
2018-08-03T17:17:26.674Z,30.18
2018-08-03T17:19:54.813Z,30.22
2018-08-03T17:22:23.002Z,30.19
2018-08-03T17:24:52.663Z,30.23
2018-08-03T17:27:20.989Z,30.18
2018-08-03T17:29:49.198Z,30.15
2018-08-03T17:32:17.368Z,30.13
2018-08-03T17:34:45.521Z,30.05
2018-08-03T17:37:13.702Z,29.99
2018-08-03T17:39:41.844Z,29.86
2018-08-03T17:42:09.937Z,29.87
2018-08-03T17:44:38.068Z,29.81
2018-08-03T17:47:06.201Z,29.61
2018-08-03T17:49:34.355Z,29.64
2018-08-03T17:52:02.526Z,29.61
2018-08-03T17:54:30.653Z,29.60
2018-08-03T17:56:58.785Z,29.50
2018-08-03T17:59:26.954Z,29.42
2018-08-03T18:01:55.072Z,29.31
2018-08-03T18:04:23.200Z,29.27
2018-08-03T18:06:51.360Z,29.19
2018-08-03T18:09:19.558Z,29.12
2018-08-03T18:11:48.214Z,29.00
2018-08-03T18:14:16.368Z,29.02
2018-08-03T18:16:44.510Z,28.96
2018-08-03T18:19:12.687Z,28.83
2018-08-03T18:21:40.978Z,28.73
2018-08-03T18:24:09.167Z,28.66
2018-08-03T18:26:37.303Z,28.65
2018-08-03T18:29:05.569Z,28.57
2018-08-03T18:31:33.677Z,28.52
2018-08-03T18:34:01.852Z,28.49
2018-08-03T18:36:30.026Z,28.38
2018-08-03T18:38:59.016Z,28.19
2018-08-03T18:41:27.517Z,28.08
2018-08-03T18:43:55.699Z,27.93
2018-08-03T18:46:24.874Z,27.87
2018-08-03T18:48:53.146Z,27.74
2018-08-03T18:51:22.956Z,27.68
2018-08-03T18:53:51.132Z,27.63
2018-08-03T18:56:19.419Z,27.60
2018-08-03T18:58:47.553Z,27.46
2018-08-03T19:01:15.750Z,27.42
2018-08-03T19:03:43.925Z,27.30
2018-08-03T19:06:12.115Z,27.20
2018-08-03T19:08:40.809Z,27.09
2018-08-03T19:11:08.982Z,26.97
2018-08-03T19:13:37.170Z,26.85
2018-08-03T19:16:05.323Z,26.78
2018-08-03T19:18:33.576Z,26.68
2018-08-03T19:21:01.809Z,26.64
2018-08-03T19:23:30.056Z,26.57
2018-08-03T19:25:58.275Z,26.44
2018-08-03T19:28:26.511Z,26.40
2018-08-03T19:30:54.604Z,26.35
2018-08-03T19:33:22.747Z,26.32
2018-08-03T19:35:50.948Z,26.25
2018-08-03T19:38:19.169Z,26.18
2018-08-03T19:40:47.413Z,26.07
2018-08-03T19:43:15.923Z,26.04
2018-08-03T19:45:44.109Z,25.97
2018-08-03T19:48:12.273Z,25.94
2018-08-03T19:50:40.497Z,25.84
2018-08-03T19:53:09.945Z,25.78
2018-08-03T19:55:38.121Z,25.73
2018-08-03T19:58:06.305Z,25.65
2018-08-03T20:00:34.465Z,25.56
2018-08-03T20:03:02.695Z,25.52
2018-08-03T20:05:30.836Z,25.43
2018-08-03T20:07:59.017Z,25.37
2018-08-03T20:10:27.168Z,25.31
2018-08-03T20:12:55.306Z,25.22
2018-08-03T20:15:23.431Z,25.19
2018-08-03T20:17:51.655Z,25.14
2018-08-03T20:20:19.843Z,25.09
2018-08-03T20:22:47.993Z,25.05
2018-08-03T20:25:16.169Z,25.04
2018-08-03T20:27:44.348Z,24.98
2018-08-03T20:30:12.543Z,25.01
2018-08-03T20:32:40.669Z,24.98
2018-08-03T20:35:08.861Z,24.86
2018-08-03T20:37:38.154Z,24.83
2018-08-03T20:40:07.929Z,24.84
2018-08-03T20:42:36.077Z,24.68
2018-08-03T20:45:05.064Z,24.55
2018-08-03T20:47:33.217Z,24.51
2018-08-03T20:50:01.369Z,24.43
2018-08-03T20:52:29.552Z,24.36
2018-08-03T20:54:57.733Z,24.30
2018-08-03T20:57:25.848Z,24.23
2018-08-03T20:59:53.960Z,24.22
2018-08-03T21:02:22.085Z,24.12
2018-08-03T21:04:50.196Z,24.04
2018-08-03T21:07:18.314Z,24.01
2018-08-03T21:09:46.497Z,23.97
2018-08-03T21:12:14.632Z,23.82
2018-08-03T21:14:42.777Z,23.90
2018-08-03T21:17:10.926Z,23.84
2018-08-03T21:19:39.030Z,23.90
2018-08-03T21:22:07.159Z,23.79
2018-08-03T21:24:35.298Z,23.73
2018-08-03T21:27:03.414Z,23.74
2018-08-03T21:29:31.513Z,23.72
2018-08-03T21:31:59.691Z,23.65
2018-08-03T21:34:27.860Z,23.55
2018-08-03T21:36:56.003Z,23.49
2018-08-03T21:39:24.154Z,23.43
2018-08-03T21:41:52.300Z,23.40
2018-08-03T21:44:20.471Z,23.45
2018-08-03T21:46:48.658Z,23.42
2018-08-03T21:49:17.493Z,23.46
2018-08-03T21:51:45.611Z,23.38
2018-08-03T21:54:13.750Z,23.31
2018-08-03T21:56:41.901Z,23.23
2018-08-03T21:59:10.031Z,23.23
2018-08-03T22:01:38.157Z,23.16
2018-08-03T22:04:06.303Z,23.10
2018-08-03T22:06:34.400Z,23.12
2018-08-03T22:09:02.561Z,23.05
2018-08-03T22:11:30.691Z,22.98
2018-08-03T22:13:58.816Z,22.89
2018-08-03T22:16:26.925Z,22.80
2018-08-03T22:18:55.962Z,22.72
2018-08-03T22:21:24.045Z,22.70
2018-08-03T22:23:52.191Z,22.64
2018-08-03T22:26:20.308Z,22.62
2018-08-03T22:28:48.444Z,22.55
2018-08-03T22:31:16.568Z,22.49
2018-08-03T22:33:44.765Z,22.44
2018-08-03T22:36:12.866Z,22.40
2018-08-03T22:38:41.011Z,22.41
2018-08-03T22:41:09.309Z,22.38
2018-08-03T22:43:37.444Z,22.39
2018-08-03T22:46:05.578Z,22.36
2018-08-03T22:48:33.719Z,22.32
2018-08-03T22:51:01.875Z,22.28
2018-08-03T22:53:30.017Z,22.29
2018-08-03T22:55:58.132Z,22.35
2018-08-03T22:58:26.264Z,22.33
2018-08-03T23:00:54.413Z,22.33
2018-08-03T23:03:22.532Z,22.28
2018-08-03T23:05:50.657Z,22.21
2018-08-03T23:08:18.821Z,22.16
2018-08-03T23:10:46.967Z,22.08
2018-08-03T23:13:15.095Z,22.05
2018-08-03T23:15:43.247Z,22.19
2018-08-03T23:18:11.370Z,22.16
2018-08-03T23:20:40.153Z,22.06
2018-08-03T23:23:08.989Z,21.92
2018-08-03T23:25:37.157Z,21.91
2018-08-03T23:28:05.321Z,21.91
2018-08-03T23:30:33.485Z,21.81
2018-08-03T23:33:01.653Z,21.88
2018-08-03T23:35:29.832Z,21.85
2018-08-03T23:37:57.956Z,21.90
2018-08-03T23:40:26.087Z,21.74
2018-08-03T23:42:54.217Z,21.64
2018-08-03T23:45:22.401Z,21.51
2018-08-03T23:47:50.577Z,21.57
2018-08-03T23:50:19.376Z,21.45
2018-08-03T23:52:48.983Z,21.34
2018-08-03T23:55:17.109Z,21.35
2018-08-03T23:57:45.593Z,21.27
